createdAt,value
2022-08-29T00:00:06.716Z,18.50
2022-08-29T00:02:34.037Z,18.50
2022-08-29T00:05:03.454Z,18.50
2022-08-29T00:07:30.695Z,18.40
2022-08-29T00:09:57.876Z,18.40
2022-08-29T00:12:25.220Z,18.30
2022-08-29T00:14:54.817Z,18.30
2022-08-29T00:17:22.000Z,18.30
2022-08-29T00:19:49.128Z,18.20
2022-08-29T00:22:16.361Z,18.20
2022-08-29T00:24:43.669Z,18.20
2022-08-29T00:27:10.855Z,18.10
2022-08-29T00:29:38.093Z,18.10
2022-08-29T00:32:05.737Z,18.10
2022-08-29T00:34:33.040Z,18.00
2022-08-29T00:37:00.405Z,18.00
2022-08-29T00:39:28.076Z,18.00
2022-08-29T00:42:15.251Z,17.90
2022-08-29T00:44:42.413Z,17.90
2022-08-29T00:47:16.128Z,17.80
2022-08-29T00:49:48.745Z,17.80
2022-08-29T00:52:39.756Z,17.80
2022-08-29T00:55:13.490Z,17.80
2022-08-29T00:57:48.137Z,17.70
2022-08-29T01:00:17.973Z,17.70
2022-08-29T01:02:47.733Z,17.70
2022-08-29T01:05:19.953Z,17.70
2022-08-29T01:07:48.717Z,17.60
2022-08-29T01:10:35.619Z,17.60
2022-08-29T01:13:05.518Z,17.60
2022-08-29T01:15:34.382Z,17.60
2022-08-29T01:18:03.896Z,17.50
2022-08-29T01:20:46.778Z,17.50
2022-08-29T01:23:24.041Z,17.50
2022-08-29T01:25:52.872Z,17.50
2022-08-29T01:28:32.536Z,17.50
2022-08-29T01:31:37.278Z,17.40
2022-08-29T01:34:05.617Z,17.40
2022-08-29T01:36:53.676Z,17.40
2022-08-29T01:39:28.974Z,17.30
2022-08-29T01:41:58.722Z,17.30
2022-08-29T01:44:26.502Z,17.20
2022-08-29T01:47:02.491Z,17.20
2022-08-29T01:49:38.464Z,17.10
2022-08-29T01:52:08.981Z,17.10
2022-08-29T01:54:36.601Z,17.00
2022-08-29T01:57:04.290Z,17.00
2022-08-29T01:59:32.565Z,16.90
2022-08-29T02:02:11.543Z,16.90
2022-08-29T02:04:41.082Z,16.90
2022-08-29T02:07:12.019Z,16.80
2022-08-29T02:09:45.530Z,16.80
2022-08-29T02:12:15.336Z,16.80
2022-08-29T02:14:43.548Z,16.70
2022-08-29T02:17:11.194Z,16.70
2022-08-29T02:19:39.869Z,16.70
2022-08-29T02:22:07.709Z,16.60
2022-08-29T02:24:35.078Z,16.60
2022-08-29T02:27:02.943Z,16.60
2022-08-29T02:29:30.887Z,16.50
2022-08-29T02:32:12.195Z,16.50
2022-08-29T02:34:42.036Z,16.50
2022-08-29T02:37:12.803Z,16.40
2022-08-29T02:39:40.021Z,16.40
2022-08-29T02:42:07.496Z,16.40
2022-08-29T02:44:35.011Z,16.40
2022-08-29T02:47:02.241Z,16.30
2022-08-29T02:49:30.254Z,16.30
2022-08-29T02:51:57.931Z,16.30
2022-08-29T02:54:25.085Z,16.30
2022-08-29T02:56:52.443Z,16.30
2022-08-29T02:59:19.669Z,16.30
2022-08-29T03:01:47.204Z,16.30
2022-08-29T03:04:34.195Z,16.30
2022-08-29T03:07:01.435Z,16.20
2022-08-29T03:09:28.726Z,16.20
2022-08-29T03:11:56.752Z,16.20
2022-08-29T03:14:26.003Z,16.20
2022-08-29T03:16:53.735Z,16.20
2022-08-29T03:19:21.057Z,16.20
2022-08-29T03:21:48.285Z,16.20
2022-08-29T03:24:15.955Z,16.20
2022-08-29T03:26:56.592Z,16.20
2022-08-29T03:29:25.071Z,16.20
2022-08-29T03:31:52.426Z,16.30
2022-08-29T03:34:20.594Z,16.30
2022-08-29T03:36:47.803Z,16.30
2022-08-29T03:39:15.057Z,16.30
2022-08-29T03:41:42.718Z,16.30
2022-08-29T03:44:10.065Z,16.30
2022-08-29T03:46:39.321Z,16.30
2022-08-29T03:49:08.341Z,16.30
2022-08-29T03:51:39.044Z,16.30
2022-08-29T03:54:07.013Z,16.30
2022-08-29T03:56:34.741Z,16.30
2022-08-29T03:59:01.997Z,16.30
2022-08-29T04:01:29.950Z,16.30
2022-08-29T04:03:58.862Z,16.30
2022-08-29T04:06:30.111Z,16.30
2022-08-29T04:08:59.160Z,16.30
2022-08-29T04:11:28.346Z,16.30
2022-08-29T04:13:55.696Z,16.20
2022-08-29T04:16:30.739Z,16.30
2022-08-29T04:18:58.990Z,16.20
2022-08-29T04:21:26.151Z,16.30
2022-08-29T04:23:54.598Z,16.30
2022-08-29T04:26:38.075Z,16.30
2022-08-29T04:29:07.918Z,16.30
2022-08-29T04:31:36.735Z,16.30
2022-08-29T04:34:07.274Z,16.30
2022-08-29T04:36:36.749Z,16.30
2022-08-29T04:39:05.383Z,16.30
2022-08-29T04:41:33.553Z,16.30
2022-08-29T04:44:01.949Z,16.30
2022-08-29T04:46:29.269Z,16.30
2022-08-29T04:49:00.562Z,16.40
2022-08-29T04:51:30.568Z,16.30
2022-08-29T04:53:57.719Z,16.30
2022-08-29T04:56:25.220Z,16.40
2022-08-29T04:58:52.525Z,16.40
2022-08-29T05:01:24.454Z,16.40
2022-08-29T05:03:55.552Z,16.30
2022-08-29T05:06:24.514Z,16.40
2022-08-29T05:08:55.077Z,16.30
2022-08-29T05:11:28.675Z,16.30
2022-08-29T05:13:55.946Z,16.30
2022-08-29T05:16:25.747Z,16.30
2022-08-29T05:18:55.883Z,16.30
2022-08-29T05:21:34.961Z,16.30
2022-08-29T05:24:09.959Z,16.30
2022-08-29T05:26:43.702Z,16.40
2022-08-29T05:29:13.003Z,16.40
2022-08-29T05:31:44.535Z,16.40
2022-08-29T05:34:34.812Z,16.40
2022-08-29T05:37:02.170Z,16.50
2022-08-29T05:39:29.774Z,16.50
2022-08-29T05:41:58.829Z,16.50
2022-08-29T05:44:35.089Z,16.50
2022-08-29T05:47:04.905Z,16.60
2022-08-29T05:49:43.829Z,16.60
2022-08-29T05:52:17.359Z,16.60
2022-08-29T05:54:46.072Z,16.60
2022-08-29T05:57:19.319Z,16.70
2022-08-29T06:00:25.543Z,16.70
2022-08-29T06:02:55.065Z,16.80
2022-08-29T06:06:18.845Z,16.80
2022-08-29T06:08:46.836Z,16.90
2022-08-29T06:11:30.237Z,17.00
2022-08-29T06:13:59.452Z,17.10
2022-08-29T06:16:29.351Z,17.20
2022-08-29T06:18:57.427Z,17.20
2022-08-29T06:21:25.039Z,17.30
2022-08-29T06:23:52.668Z,17.40
2022-08-29T06:26:20.365Z,17.50
2022-08-29T06:28:48.657Z,17.60
2022-08-29T06:31:28.278Z,17.60
2022-08-29T06:34:00.072Z,17.70
2022-08-29T06:36:29.912Z,17.80
2022-08-29T06:38:59.833Z,17.90
2022-08-29T06:41:28.128Z,18.00
2022-08-29T06:43:57.187Z,18.10
2022-08-29T06:46:30.063Z,18.20
2022-08-29T06:49:00.444Z,18.30
2022-08-29T06:51:36.032Z,18.40
2022-08-29T06:54:08.372Z,18.50
2022-08-29T06:56:38.555Z,18.70
2022-08-29T06:59:07.425Z,18.70
2022-08-29T07:01:35.908Z,18.90
2022-08-29T07:04:03.957Z,19.10
2022-08-29T07:06:32.945Z,19.20
2022-08-29T07:09:05.264Z,19.30
2022-08-29T07:11:37.707Z,19.40
2022-08-29T07:14:08.358Z,19.60
2022-08-29T07:16:36.804Z,19.70
2022-08-29T07:19:06.815Z,19.70
2022-08-29T07:21:34.434Z,19.90
2022-08-29T07:24:02.533Z,20.00
2022-08-29T07:26:51.516Z,20.10
2022-08-29T07:29:25.281Z,20.20
2022-08-29T07:31:53.598Z,20.30
2022-08-29T07:34:21.097Z,20.40
2022-08-29T07:36:48.785Z,20.50
2022-08-29T07:39:20.153Z,20.70
2022-08-29T07:46:29.659Z,21.10
2022-08-29T07:48:59.749Z,21.30
2022-08-29T07:51:28.348Z,21.50
2022-08-29T07:53:57.541Z,21.50
2022-08-29T07:56:41.465Z,21.50
2022-08-29T07:59:10.005Z,21.50
2022-08-29T08:02:57.137Z,21.50
2022-08-29T08:05:26.416Z,21.50
2022-08-29T08:07:57.186Z,21.40
2022-08-29T08:10:24.960Z,21.30
2022-08-29T08:12:52.113Z,21.30
2022-08-29T08:15:22.128Z,21.20
2022-08-29T08:17:49.544Z,21.20
2022-08-29T08:20:17.065Z,21.20
2022-08-29T08:22:46.950Z,21.20
2022-08-29T08:25:14.276Z,21.10
2022-08-29T08:27:43.485Z,21.10
2022-08-29T08:30:14.298Z,21.10
2022-08-29T08:32:46.402Z,21.20
2022-08-29T08:35:16.420Z,21.20
2022-08-29T08:37:44.452Z,21.30
2022-08-29T08:40:27.043Z,21.40
2022-08-29T08:43:03.581Z,21.50
2022-08-29T08:45:44.987Z,21.50
2022-08-29T08:48:24.491Z,21.60
2022-08-29T08:51:06.953Z,21.70
2022-08-29T08:53:40.400Z,21.90
2022-08-29T08:56:19.659Z,22.10
2022-08-29T08:59:25.012Z,22.20
2022-08-29T09:02:17.076Z,22.40
2022-08-29T09:05:25.826Z,22.50
2022-08-29T09:08:08.322Z,22.70
2022-08-29T09:11:04.037Z,23.00
2022-08-29T09:14:14.636Z,23.30
2022-08-29T09:16:49.708Z,23.40
2022-08-29T09:19:17.835Z,23.50
2022-08-29T09:21:55.834Z,23.50
2022-08-29T09:24:46.822Z,23.60
2022-08-29T09:27:27.431Z,23.60
2022-08-29T09:30:07.518Z,23.70
2022-08-29T09:32:52.976Z,23.90
2022-08-29T09:35:34.629Z,24.00
2022-08-29T09:38:21.702Z,24.10
2022-08-29T09:41:00.511Z,24.20
2022-08-29T09:43:44.405Z,24.30
2022-08-29T09:46:12.232Z,24.30
2022-08-29T09:48:47.870Z,24.40
2022-08-29T09:51:28.798Z,24.40
2022-08-29T09:54:16.815Z,24.40
2022-08-29T09:56:58.568Z,24.40
2022-08-29T09:59:37.687Z,24.60
2022-08-29T10:02:44.132Z,24.80
2022-08-29T10:05:41.907Z,25.10
2022-08-29T10:08:36.571Z,25.60
2022-08-29T10:11:21.078Z,26.00
2022-08-29T10:14:17.800Z,26.50
2022-08-29T10:17:32.645Z,26.90
2022-08-29T10:20:00.017Z,27.40
2022-08-29T10:22:40.879Z,27.90
2022-08-29T10:25:34.178Z,28.30
2022-08-29T10:28:31.497Z,28.70
2022-08-29T10:31:19.405Z,29.10
2022-08-29T10:34:27.051Z,29.30
2022-08-29T10:37:24.001Z,29.30
2022-08-29T10:40:38.350Z,29.30
2022-08-29T10:43:36.058Z,29.30
2022-08-29T10:46:49.829Z,29.30
2022-08-29T10:49:52.710Z,29.30
2022-08-29T10:52:41.501Z,29.30
2022-08-29T10:55:30.561Z,29.20
2022-08-29T10:58:12.386Z,29.20
2022-08-29T11:01:10.483Z,29.10
2022-08-29T11:04:09.886Z,29.00
2022-08-29T11:06:47.499Z,29.00
2022-08-29T11:09:36.360Z,29.00
2022-08-29T11:12:19.083Z,29.10
2022-08-29T11:15:03.687Z,29.30
2022-08-29T11:17:39.125Z,29.40
2022-08-29T11:20:19.892Z,29.70
2022-08-29T11:23:30.627Z,29.90
2022-08-29T11:26:04.344Z,30.00
2022-08-29T11:31:43.000Z,30.00
2022-08-29T11:34:39.150Z,30.10
2022-08-29T11:37:29.285Z,30.30
2022-08-29T11:40:05.300Z,30.40
2022-08-29T11:42:54.459Z,30.40
2022-08-29T11:45:36.905Z,30.50
2022-08-29T11:48:34.240Z,30.60
2022-08-29T11:51:29.712Z,30.70
2022-08-29T11:54:29.006Z,30.80
2022-08-29T11:57:02.475Z,30.80
2022-08-29T11:59:56.780Z,30.70
2022-08-29T12:02:48.306Z,30.70
2022-08-29T12:05:20.894Z,30.70
2022-08-29T12:07:54.478Z,30.80
2022-08-29T12:10:26.742Z,30.90
2022-08-29T12:13:00.757Z,30.90
2022-08-29T12:15:27.840Z,30.90
2022-08-29T12:18:08.262Z,30.80
2022-08-29T12:20:45.697Z,30.90
2022-08-29T12:23:30.230Z,31.00
2022-08-29T12:26:22.925Z,31.10
2022-08-29T12:29:02.085Z,31.20
2022-08-29T12:32:18.797Z,31.30
2022-08-29T12:35:23.999Z,31.30
2022-08-29T12:38:25.205Z,31.40
2022-08-29T12:41:27.618Z,31.50
2022-08-29T12:44:03.980Z,31.60
2022-08-29T12:46:44.695Z,31.60
2022-08-29T12:49:26.989Z,31.60
2022-08-29T12:52:03.823Z,31.70
2022-08-29T12:54:38.543Z,31.70
2022-08-29T12:57:22.668Z,31.80
2022-08-29T12:59:54.267Z,31.80
2022-08-29T13:02:36.611Z,31.90
2022-08-29T13:05:28.907Z,32.00
2022-08-29T13:08:02.831Z,32.20
2022-08-29T13:10:30.751Z,32.50
2022-08-29T13:13:25.902Z,32.70
2022-08-29T13:15:57.429Z,32.80
2022-08-29T13:18:25.311Z,32.80
2022-08-29T13:21:22.267Z,32.80
2022-08-29T13:24:05.088Z,32.80
2022-08-29T13:26:34.936Z,32.90
2022-08-29T13:29:44.189Z,33.10
2022-08-29T13:32:24.056Z,33.30
2022-08-29T13:35:18.918Z,33.60
2022-08-29T13:38:16.676Z,33.80
2022-08-29T13:40:50.726Z,33.90
2022-08-29T13:43:42.224Z,33.80
2022-08-29T13:46:26.582Z,33.80
2022-08-29T13:49:04.946Z,33.80
2022-08-29T13:51:32.133Z,34.00
2022-08-29T13:53:59.395Z,34.20
2022-08-29T13:56:34.029Z,34.40
2022-08-29T13:59:02.866Z,34.50
2022-08-29T14:02:06.912Z,34.50
2022-08-29T14:07:04.776Z,34.30
2022-08-29T14:09:45.687Z,34.10
2022-08-29T14:12:14.328Z,34.00
2022-08-29T14:14:43.743Z,33.90
2022-08-29T14:17:18.343Z,33.80
2022-08-29T14:19:47.525Z,33.80
2022-08-29T14:22:15.620Z,33.80
2022-08-29T14:24:43.568Z,33.80
2022-08-29T14:27:11.018Z,33.80
2022-08-29T14:29:38.551Z,33.90
2022-08-29T14:32:06.107Z,34.00
2022-08-29T14:34:33.362Z,34.10
2022-08-29T14:37:02.985Z,34.20
2022-08-29T14:39:30.599Z,34.30
2022-08-29T14:41:57.780Z,34.30
2022-08-29T14:44:25.314Z,34.30
2022-08-29T14:46:52.862Z,34.30
2022-08-29T14:49:20.782Z,34.20
2022-08-29T14:51:49.277Z,34.20
2022-08-29T14:54:18.350Z,34.20
2022-08-29T14:56:49.315Z,34.20
2022-08-29T14:59:22.964Z,34.30
2022-08-29T15:01:54.341Z,34.20
2022-08-29T15:04:35.056Z,34.10
2022-08-29T15:07:08.040Z,34.10
2022-08-29T15:09:36.125Z,33.90
2022-08-29T15:12:04.752Z,33.60
2022-08-29T15:14:36.868Z,33.30
2022-08-29T15:17:06.573Z,33.10
2022-08-29T15:22:23.496Z,33.00
2022-08-29T15:24:52.378Z,32.90
2022-08-29T15:27:27.081Z,32.90
2022-08-29T15:29:55.509Z,32.90
2022-08-29T15:32:22.891Z,32.90
2022-08-29T15:34:50.760Z,32.90
2022-08-29T15:37:20.915Z,32.90
2022-08-29T15:39:50.201Z,32.80
2022-08-29T15:42:28.789Z,32.70
2022-08-29T15:44:58.679Z,32.60
2022-08-29T15:47:26.412Z,32.40
2022-08-29T15:49:54.943Z,32.20
2022-08-29T15:52:22.375Z,31.90
2022-08-29T15:54:49.643Z,31.60
2022-08-29T15:57:17.306Z,31.30
2022-08-29T15:59:57.526Z,31.10
2022-08-29T16:02:25.338Z,30.90
2022-08-29T16:04:56.671Z,30.70
2022-08-29T16:07:28.888Z,30.50
2022-08-29T16:10:01.468Z,30.40
2022-08-29T16:12:31.129Z,30.40
2022-08-29T16:14:59.942Z,30.50
2022-08-29T16:17:29.920Z,30.50
2022-08-29T16:19:58.520Z,30.60
2022-08-29T16:22:29.644Z,30.60
2022-08-29T16:24:57.330Z,30.50
2022-08-29T16:27:24.951Z,30.40
2022-08-29T16:29:53.999Z,30.40
2022-08-29T16:32:21.692Z,30.30
2022-08-29T16:34:48.821Z,30.30
2022-08-29T16:37:16.355Z,30.30
2022-08-29T16:39:43.721Z,30.40
2022-08-29T16:42:12.715Z,30.40
2022-08-29T16:44:40.833Z,30.40
2022-08-29T16:47:08.354Z,30.50
2022-08-29T16:49:35.952Z,30.60
2022-08-29T16:52:05.420Z,30.70
2022-08-29T16:54:33.037Z,30.80
2022-08-29T16:57:00.477Z,30.90
2022-08-29T16:59:28.015Z,31.00
2022-08-29T17:01:55.905Z,31.00
2022-08-29T17:04:30.664Z,31.10
2022-08-29T17:06:59.176Z,31.10
2022-08-29T17:09:26.610Z,31.20
2022-08-29T17:11:56.273Z,31.20
2022-08-29T17:14:25.986Z,31.10
2022-08-29T17:16:55.854Z,31.10
2022-08-29T17:19:24.332Z,31.10
2022-08-29T17:21:52.595Z,31.10
2022-08-29T17:24:21.438Z,31.10
2022-08-29T17:26:49.303Z,31.10
2022-08-29T17:29:17.187Z,31.00
2022-08-29T17:31:44.886Z,30.90
2022-08-29T17:34:13.019Z,30.80
2022-08-29T17:36:43.843Z,30.60
2022-08-29T17:39:13.173Z,30.40
2022-08-29T17:41:43.319Z,30.20
2022-08-29T17:44:13.242Z,30.00
2022-08-29T17:46:40.863Z,29.80
2022-08-29T17:49:10.763Z,29.60
2022-08-29T17:51:39.854Z,29.40
2022-08-29T17:54:14.725Z,29.10
2022-08-29T17:56:59.102Z,28.90
2022-08-29T17:59:33.040Z,28.70
2022-08-29T18:02:01.161Z,28.50
2022-08-29T18:04:29.615Z,28.30
2022-08-29T18:06:57.805Z,28.10
2022-08-29T18:09:28.966Z,27.90
2022-08-29T18:11:58.483Z,27.70
2022-08-29T18:14:27.395Z,27.60
2022-08-29T18:16:55.985Z,27.50
2022-08-29T18:19:24.904Z,27.30
2022-08-29T18:21:53.693Z,27.10
2022-08-29T18:24:22.080Z,27.00
2022-08-29T18:26:50.925Z,27.00
2022-08-29T18:29:18.995Z,26.80
2022-08-29T18:31:46.356Z,26.70
2022-08-29T18:34:15.454Z,26.60
2022-08-29T18:36:45.951Z,26.50
2022-08-29T18:39:16.525Z,26.40
2022-08-29T18:41:44.860Z,26.30
2022-08-29T18:44:13.045Z,26.20
2022-08-29T18:46:48.071Z,26.10
2022-08-29T18:49:17.077Z,26.00
2022-08-29T18:51:44.686Z,25.90
2022-08-29T18:54:15.141Z,25.80
2022-08-29T18:56:44.825Z,25.70
2022-08-29T18:59:12.851Z,25.70
2022-08-29T19:01:42.988Z,25.60
2022-08-29T19:04:10.338Z,25.50
2022-08-29T19:06:37.652Z,25.40
2022-08-29T19:09:04.993Z,25.40
2022-08-29T19:11:32.252Z,25.30
2022-08-29T19:13:59.576Z,25.30
2022-08-29T19:16:27.215Z,25.20
2022-08-29T19:18:54.607Z,25.10
2022-08-29T19:21:21.972Z,25.10
2022-08-29T19:23:52.119Z,25.00
2022-08-29T19:26:32.766Z,25.00
2022-08-29T19:29:06.666Z,24.90
2022-08-29T19:31:34.170Z,24.90
2022-08-29T19:34:01.561Z,24.80
2022-08-29T19:36:29.149Z,24.80
2022-08-29T19:38:56.823Z,24.70
2022-08-29T19:41:25.046Z,24.60
2022-08-29T19:43:53.449Z,24.60
2022-08-29T19:46:23.907Z,24.60
2022-08-29T19:48:52.675Z,24.50
2022-08-29T19:51:24.725Z,24.50
2022-08-29T19:53:54.053Z,24.50
2022-08-29T19:56:21.254Z,24.40
2022-08-29T19:58:49.401Z,24.30
2022-08-29T20:01:17.982Z,24.30
2022-08-29T20:03:54.691Z,24.30
2022-08-29T20:06:21.973Z,24.20
2022-08-29T20:08:50.260Z,24.20
2022-08-29T20:11:23.217Z,24.20
2022-08-29T20:13:53.820Z,24.10
2022-08-29T20:16:28.751Z,24.00
2022-08-29T20:18:56.294Z,24.00
2022-08-29T20:21:24.707Z,24.00
2022-08-29T20:23:57.589Z,23.90
2022-08-29T20:26:28.544Z,23.90
2022-08-29T20:28:58.548Z,23.80
2022-08-29T20:31:26.550Z,23.80
2022-08-29T20:33:54.036Z,23.80
2022-08-29T20:36:42.865Z,23.70
2022-08-29T20:39:18.222Z,23.60
2022-08-29T20:41:55.721Z,23.60
2022-08-29T20:44:33.538Z,23.60
2022-08-29T20:47:01.482Z,23.50
2022-08-29T20:49:28.664Z,23.50
2022-08-29T20:51:56.006Z,23.40
2022-08-29T20:54:25.123Z,23.40
2022-08-29T20:56:54.091Z,23.30
2022-08-29T20:59:26.536Z,23.30
2022-08-29T21:01:55.799Z,23.30
2022-08-29T21:04:42.089Z,23.20
2022-08-29T21:07:14.921Z,23.30
2022-08-29T21:09:46.489Z,23.20
2022-08-29T21:12:15.640Z,23.20
2022-08-29T21:14:42.921Z,23.20
2022-08-29T21:17:13.113Z,23.10
2022-08-29T21:19:40.840Z,23.10
2022-08-29T21:22:11.495Z,23.10
2022-08-29T21:24:39.451Z,23.10
2022-08-29T21:27:06.829Z,23.00
2022-08-29T21:29:37.259Z,23.00
2022-08-29T21:32:04.746Z,22.90
2022-08-29T21:34:32.281Z,22.90
2022-08-29T21:36:59.468Z,22.80
2022-08-29T21:39:28.170Z,22.80
2022-08-29T21:41:57.248Z,22.80
2022-08-29T21:44:24.523Z,22.70
2022-08-29T21:46:52.894Z,22.70
2022-08-29T21:49:22.156Z,22.70
2022-08-29T21:51:50.484Z,22.60
2022-08-29T21:54:18.619Z,22.60
2022-08-29T21:56:47.544Z,22.60
2022-08-29T21:59:17.894Z,22.60
2022-08-29T22:01:46.858Z,22.50
2022-08-29T22:04:28.538Z,22.50
2022-08-29T22:06:59.259Z,22.50
2022-08-29T22:09:28.122Z,22.50
2022-08-29T22:11:56.283Z,22.50
2022-08-29T22:14:46.371Z,22.50
2022-08-29T22:17:14.457Z,22.40
2022-08-29T22:19:42.258Z,22.40
2022-08-29T22:22:09.739Z,22.40
2022-08-29T22:24:37.663Z,22.40
2022-08-29T22:27:05.154Z,22.40
2022-08-29T22:29:33.606Z,22.40
2022-08-29T22:32:00.806Z,22.40
2022-08-29T22:34:28.007Z,22.40
2022-08-29T22:36:56.369Z,22.30
2022-08-29T22:39:23.780Z,22.30
2022-08-29T22:41:51.345Z,22.30
2022-08-29T22:47:06.267Z,22.30
2022-08-29T22:49:33.703Z,22.30
2022-08-29T22:52:01.901Z,22.20
2022-08-29T22:54:35.138Z,22.20
2022-08-29T22:57:09.456Z,22.20
2022-08-29T22:59:39.015Z,22.10
2022-08-29T23:02:07.969Z,22.10
2022-08-29T23:04:36.575Z,22.00
2022-08-29T23:07:05.688Z,22.00
2022-08-29T23:09:35.305Z,22.00
2022-08-29T23:12:06.075Z,22.00
2022-08-29T23:14:36.232Z,22.00
2022-08-29T23:17:05.883Z,21.90
2022-08-29T23:19:33.694Z,21.80
2022-08-29T23:22:02.273Z,21.90
2022-08-29T23:24:30.209Z,21.80
2022-08-29T23:26:57.396Z,21.80
2022-08-29T23:29:24.754Z,21.80
2022-08-29T23:31:51.933Z,21.80
2022-08-29T23:34:19.270Z,21.80
2022-08-29T23:36:46.470Z,21.70
2022-08-29T23:39:13.681Z,21.70
2022-08-29T23:41:41.101Z,21.70
2022-08-29T23:44:08.562Z,21.60
2022-08-29T23:46:38.124Z,21.60
2022-08-29T23:49:07.094Z,21.60
2022-08-29T23:51:34.625Z,21.60
2022-08-29T23:54:02.028Z,21.60
2022-08-29T23:56:29.379Z,21.50
2022-08-29T23:58:57.075Z,21.50
